Time;durP1;ratioP1;P1;durP2;ratioP2;P2;SDS_P1;SDS_P2;PMS_P1;PMS_P2;Temp;Humidity;BMP_temperature;BMP_pressure;BME280_temperature;BME280_humidity;BME280_pressure;Samples;Min_cycle;Max_cycle;Signal;HPM_P1;HPM_P2
2021/03/06 00:01:59;;;;;;;;;;;;;;;3.08;60.50;100377.09;1771642;80;20514;-69
2021/03/06 00:07:57;;;;;;;;;;;;;;;3.13;60.96;100384.02;1772864;80;20209;-69
2021/03/06 00:13:55;;;;;;;;;;;;;;;3.19;61.10;100379.87;1805975;78;20237;-69
2021/03/06 00:19:53;;;;;;;;;;;;;;;3.02;58.47;100378.25;1802754;78;20484;-64
2021/03/06 00:25:52;;;;;;;;;;;;;;;2.54;59.21;100380.78;1803145;78;20653;-64
2021/03/06 00:28:28;;;;;;;;;;;;;;;2.60;60.57;100379.61;1830705;77;20215;-66
2021/03/06 00:30:58;;;;;;;;;;;;;;;2.60;61.29;100380.93;1800464;79;20145;-63
2021/03/06 00:33:26;;;;;;;;;;;;;;;2.69;61.49;100379.61;1798178;79;21196;-66
2021/03/06 00:35:55;;;;;;;;;;;;;;;2.74;60.94;100382.58;1801297;79;20139;-64
2021/03/06 00:38:23;;;;;;;;;;;;;;;2.78;61.36;100382.10;1800225;79;20140;-65
2021/03/06 00:40:51;;;;;;;;;;;;;;;2.83;61.40;100383.40;1801116;79;20553;-66
2021/03/06 00:43:20;;;;;;;;;;;;;;;2.83;61.70;100378.95;1801880;79;20129;-68
2021/03/06 00:45:48;;;;;;;;;;;;;;;2.87;61.70;100378.11;1801260;79;21326;-68
2021/03/06 00:48:16;;;;;;;;;;;;;;;2.86;60.86;100368.02;1801526;79;20168;-68
2021/03/06 00:50:44;;;;;;;;;;;;;;;2.84;58.75;100364.69;1800194;79;20149;-67
2021/03/06 00:53:12;;;;;;;;;;;;;;;2.69;57.74;100371.17;1799106;79;20151;-68
2021/03/06 00:55:41;;;;;;;;;;;;;;;2.50;55.78;100367.03;1800376;79;20256;-68
2021/03/06 00:58:08;;;;;;;;;;;;;;;2.34;55.98;100372.32;1801770;79;21142;-67
2021/03/06 01:00:37;;;;;;;;;;;;;;;2.30;56.67;100361.25;1800947;79;20231;-66
2021/03/06 01:03:07;;;;;;;;;;;;;;;2.38;57.90;100365.72;1801299;79;20496;-67
2021/03/06 01:05:35;;;;;;;;;;;;;;;2.52;58.08;100364.22;1798997;79;20714;-68
2021/03/06 01:08:05;;;;;;;;;;;;;;;2.65;57.17;100364.58;1799985;79;20143;-67
2021/03/06 01:10:36;;;;;;;;;;;;;;;2.76;57.05;100365.54;1806593;79;21195;-67
2021/03/06 01:13:05;;;;;;;;;;;;;;;2.87;56.33;100377.62;1800403;79;20188;-67
2021/03/06 01:15:33;;;;;;;;;;;;;;;2.96;56.45;100377.94;1797435;79;20133;-66
2021/03/06 01:18:02;;;;;;;;;;;;;;;3.00;54.47;100372.30;1803376;79;20561;-68
2021/03/06 01:20:30;;;;;;;;;;;;;;;2.97;54.67;100372.98;1688795;84;20263;-68
2021/03/06 01:22:59;;;;;;;;;;;;;;;3.00;54.43;100367.82;1653861;85;21220;-68
2021/03/06 01:25:27;;;;;;;;;;;;;;;3.05;54.75;100354.91;1685827;85;20292;-68
2021/03/06 01:27:55;;;;;;;;;;;;;;;3.11;54.80;100355.55;1671583;85;20295;-67
2021/03/06 01:30:30;;;;;;;;;;;;;;;3.22;54.65;100357.52;1831404;77;20355;-65
2021/03/06 01:32:59;;;;;;;;;;;;;;;3.20;54.52;100362.98;1797213;79;20169;-64
2021/03/06 01:35:27;;;;;;;;;;;;;;;3.20;54.37;100361.66;1790499;79;21205;-64
2021/03/06 01:37:55;;;;;;;;;;;;;;;3.21;54.40;100369.95;1789578;79;20113;-67
2021/03/06 01:40:30;;;;;;;;;;;;;;;3.23;54.47;100364.48;1791004;79;20158;-67
2021/03/06 01:42:58;;;;;;;;;;;;;;;3.26;54.68;100369.43;1790066;79;20137;-69
2021/03/06 01:45:27;;;;;;;;;;;;;;;3.28;54.66;100376.70;1801169;79;20168;-69
2021/03/06 01:47:55;;;;;;;;;;;;;;;3.29;54.62;100376.53;1800745;79;21915;-65
2021/03/06 01:50:29;;;;;;;;;;;;;;;3.30;54.72;100366.78;1794798;79;20959;-66
2021/03/06 01:52:58;;;;;;;;;;;;;;;3.29;54.71;100365.11;1798011;79;20214;-65
2021/03/06 01:55:26;;;;;;;;;;;;;;;3.26;54.04;100370.25;1807016;79;20151;-65
2021/03/06 01:57:54;;;;;;;;;;;;;;;3.21;54.37;100373.92;1699188;83;20253;-65
2021/03/06 02:00:24;;;;;;;;;;;;;;;3.22;54.54;100380.03;1706812;83;21224;-65
2021/03/06 02:02:53;;;;;;;;;;;;;;;3.25;53.98;100386.31;1708260;83;20308;-64
2021/03/06 02:05:21;;;;;;;;;;;;;;;3.17;53.87;100389.00;1708404;83;20226;-65
2021/03/06 02:07:50;;;;;;;;;;;;;;;3.10;54.21;100399.44;1711547;83;20171;-66
2021/03/06 02:10:20;;;;;;;;;;;;;;;3.07;54.16;100391.83;1708700;83;20280;-65
2021/03/06 02:13:14;;;;;;;;;;;;;;;3.07;54.76;100390.50;1705971;83;22188;-65
2021/03/06 02:16:05;;;;;;;;;;;;;;;3.10;55.16;100388.84;1739338;79;20146;-66
2021/03/06 02:18:58;;;;;;;;;;;;;;;3.10;55.51;100386.19;1785506;79;20192;-65
2021/03/06 02:21:35;;;;;;;;;;;;;;;3.10;55.53;100400.25;1779864;79;20139;-67
2021/03/06 02:24:24;;;;;;;;;;;;;;;3.05;55.83;100400.42;1791908;79;21145;-66
2021/03/06 02:27:23;;;;;;;;;;;;;;;3.01;55.91;100411.86;1798810;79;22101;-66
2021/03/06 02:29:56;;;;;;;;;;;;;;;2.98;56.04;100417.50;1795651;79;20213;-65
2021/03/06 02:32:33;;;;;;;;;;;;;;;2.99;56.15;100420.48;1783587;79;20237;-66
2021/03/06 02:35:12;;;;;;;;;;;;;;;3.00;55.92;100422.12;1771951;79;20487;-67
2021/03/06 02:37:48;;;;;;;;;;;;;;;3.03;55.85;100426.27;1786869;79;20231;-67
2021/03/06 02:40:16;;;;;;;;;;;;;;;3.04;55.89;100423.95;1774715;79;21210;-66
2021/03/06 02:42:44;;;;;;;;;;;;;;;3.02;55.51;100431.22;1781679;79;20221;-66
2021/03/06 02:45:13;;;;;;;;;;;;;;;3.00;55.60;100431.89;1784827;79;20285;-66
2021/03/06 02:47:41;;;;;;;;;;;;;;;2.96;55.45;100442.83;1785904;79;20217;-67
2021/03/06 02:50:13;;;;;;;;;;;;;;;2.88;55.50;100448.62;1705940;81;20229;-64
2021/03/06 02:52:41;;;;;;;;;;;;;;;2.82;55.53;100445.31;1753745;81;21132;-69
2021/03/06 02:55:10;;;;;;;;;;;;;;;2.78;55.75;100449.63;1752272;81;20246;-69
2021/03/06 02:58:02;;;;;;;;;;;;;;;2.78;55.85;100461.53;1708482;81;20215;-67
2021/03/06 03:00:45;;;;;;;;;;;;;;;2.79;55.29;100468.97;1753608;81;20229;-68
2021/03/06 03:03:21;;;;;;;;;;;;;;;2.72;55.28;100462.67;1749377;81;20294;-68
2021/03/06 03:06:09;;;;;;;;;;;;;;;2.67;55.16;100474.27;1750360;80;21274;-68
2021/03/06 03:09:12;;;;;;;;;;;;;;;2.57;55.39;100475.73;1752038;81;20233;-65
2021/03/06 03:11:47;;;;;;;;;;;;;;;2.47;55.11;100475.05;1752063;81;20138;-66
2021/03/06 03:14:18;;;;;;;;;;;;;;;2.34;55.18;100481.66;1753446;81;20224;-65
2021/03/06 03:16:52;;;;;;;;;;;;;;;2.31;55.56;100487.23;1749352;81;20215;-65
2021/03/06 03:19:34;;;;;;;;;;;;;;;2.35;55.62;100479.82;1753676;80;21494;-66
2021/03/06 03:22:03;;;;;;;;;;;;;;;2.38;55.11;100482.96;1735156;81;20476;-68
2021/03/06 03:24:34;;;;;;;;;;;;;;;2.38;54.90;100484.79;1715526;81;20152;-68
2021/03/06 03:27:04;;;;;;;;;;;;;;;2.37;54.82;100493.23;1748013;81;20300;-67
2021/03/06 03:29:34;;;;;;;;;;;;;;;2.38;54.23;100503.31;1747659;81;20561;-65
2021/03/06 03:32:03;;;;;;;;;;;;;;;2.29;54.66;100510.39;1718166;81;21859;-68
2021/03/06 03:34:31;;;;;;;;;;;;;;;2.26;54.44;100512.05;1751987;81;20114;-67
2021/03/06 03:36:59;;;;;;;;;;;;;;;2.24;54.56;100492.36;1750084;81;20162;-67
2021/03/06 03:39:28;;;;;;;;;;;;;;;2.28;54.46;100496.34;1750048;81;20964;-66
2021/03/06 03:41:58;;;;;;;;;;;;;;;2.22;53.59;100499.64;1752159;81;20218;-65
2021/03/06 03:44:25;;;;;;;;;;;;;;;2.16;53.69;100498.12;1754665;81;21309;-68
2021/03/06 03:46:54;;;;;;;;;;;;;;;2.13;54.10;100497.94;1750609;81;20265;-64
2021/03/06 03:49:23;;;;;;;;;;;;;;;2.15;53.51;100504.39;1748730;81;20216;-65
2021/03/06 03:51:51;;;;;;;;;;;;;;;2.10;52.88;100498.25;1749134;81;20119;-64
2021/03/06 03:54:19;;;;;;;;;;;;;;;1.93;52.88;100502.16;1754058;81;20511;-64
2021/03/06 03:56:47;;;;;;;;;;;;;;;1.77;52.71;100510.48;1753723;80;22190;-65
2021/03/06 03:59:15;;;;;;;;;;;;;;;1.57;52.74;100504.11;1748908;81;20154;-64
2021/03/06 04:01:44;;;;;;;;;;;;;;;1.41;53.01;100506.15;1718954;81;20325;-64
2021/03/06 04:04:22;;;;;;;;;;;;;;;1.28;53.10;100507.90;1752277;81;20155;-65
2021/03/06 04:06:58;;;;;;;;;;;;;;;1.23;53.23;100507.02;1827760;77;20674;-65
2021/03/06 04:09:26;;;;;;;;;;;;;;;1.11;53.44;100511.39;1798264;79;20147;-64
2021/03/06 04:11:53;;;;;;;;;;;;;;;1.05;54.06;100516.28;1800545;79;21265;-65
2021/03/06 04:14:22;;;;;;;;;;;;;;;1.11;53.56;100511.39;1805241;79;20194;-65
2021/03/06 04:16:51;;;;;;;;;;;;;;;1.08;53.64;100515.16;1799020;79;20735;-65
2021/03/06 04:19:19;;;;;;;;;;;;;;;1.11;53.91;100514.84;1792944;78;20262;-65
2021/03/06 04:21:47;;;;;;;;;;;;;;;1.18;53.74;100518.54;1800544;79;20137;-64
2021/03/06 04:24:15;;;;;;;;;;;;;;;1.19;53.60;100519.36;1801848;79;21294;-65
2021/03/06 04:26:45;;;;;;;;;;;;;;;1.17;53.47;100520.84;1787540;79;20202;-65
2021/03/06 04:29:13;;;;;;;;;;;;;;;1.14;53.71;100527.75;1769322;80;20490;-68
2021/03/06 04:31:41;;;;;;;;;;;;;;;1.05;53.44;100526.84;1768581;80;20284;-66
2021/03/06 04:34:10;;;;;;;;;;;;;;;0.91;54.00;100530.02;1774336;80;20322;-67
2021/03/06 04:36:39;;;;;;;;;;;;;;;0.87;54.38;100530.81;1770828;80;21205;-64
2021/03/06 04:39:06;;;;;;;;;;;;;;;0.83;54.44;100523.36;1772958;80;20186;-64
2021/03/06 04:41:35;;;;;;;;;;;;;;;0.75;54.71;100537.31;1768703;80;20154;-63
2021/03/06 04:44:04;;;;;;;;;;;;;;;0.68;54.51;100537.06;1769432;80;20147;-67
2021/03/06 04:46:32;;;;;;;;;;;;;;;0.57;55.03;100527.22;1770522;80;20224;-67
2021/03/06 04:49:04;;;;;;;;;;;;;;;0.57;54.93;100536.45;1769073;80;21204;-65
2021/03/06 04:51:32;;;;;;;;;;;;;;;0.49;55.18;100526.64;1771718;80;20591;-70
2021/03/06 04:54:00;;;;;;;;;;;;;;;0.44;55.46;100536.80;1768808;80;20168;-67
2021/03/06 04:56:28;;;;;;;;;;;;;;;0.49;55.67;100539.34;1770365;80;20312;-68
2021/03/06 04:58:55;;;;;;;;;;;;;;;0.62;55.64;100539.45;1769557;80;20504;-66
2021/03/06 05:01:24;;;;;;;;;;;;;;;0.71;55.25;100538.59;1740460;80;21209;-68
2021/03/06 05:03:52;;;;;;;;;;;;;;;0.82;55.35;100546.77;1771132;80;20560;-67
2021/03/06 05:06:20;;;;;;;;;;;;;;;0.93;55.34;100554.94;1772300;80;20175;-68
2021/03/06 05:08:48;;;;;;;;;;;;;;;1.03;54.91;100560.50;1739910;80;20500;-68
2021/03/06 05:11:16;;;;;;;;;;;;;;;1.04;54.78;100570.56;1772563;80;20147;-66
2021/03/06 05:13:44;;;;;;;;;;;;;;;1.11;54.40;100578.23;1767048;80;22287;-66
2021/03/06 05:16:12;;;;;;;;;;;;;;;1.19;54.36;100583.59;1736630;80;20244;-65
2021/03/06 05:18:42;;;;;;;;;;;;;;;1.35;53.88;100592.13;1768969;80;20174;-67
2021/03/06 05:21:10;;;;;;;;;;;;;;;1.46;53.29;100594.19;1765606;80;20173;-66
2021/03/06 05:23:38;;;;;;;;;;;;;;;1.55;52.11;100602.05;1767658;80;20133;-65
2021/03/06 05:26:06;;;;;;;;;;;;;;;1.60;51.34;100604.72;1769348;79;21417;-66
2021/03/06 05:28:34;;;;;;;;;;;;;;;1.65;51.66;100619.61;1767776;80;20131;-65
2021/03/06 05:31:02;;;;;;;;;;;;;;;1.82;50.11;100617.43;1736306;80;20308;-64
2021/03/06 05:33:30;;;;;;;;;;;;;;;2.10;49.44;100623.89;1768923;79;20247;-63
2021/03/06 05:35:59;;;;;;;;;;;;;;;2.54;47.60;100628.25;1765316;80;20296;-64
2021/03/06 05:38:27;;;;;;;;;;;;;;;2.96;47.70;100630.88;1738642;80;20533;-67
2021/03/06 05:40:55;;;;;;;;;;;;;;;3.62;46.40;100627.46;1769638;80;20431;-65
2021/03/06 05:43:23;;;;;;;;;;;;;;;4.50;45.41;100633.77;1768380;80;20497;-66
2021/03/06 05:45:51;;;;;;;;;;;;;;;5.64;43.14;100626.60;1767767;80;20222;-66
2021/03/06 05:48:19;;;;;;;;;;;;;;;6.71;40.13;100636.17;1768221;80;20531;-65
2021/03/06 05:50:48;;;;;;;;;;;;;;;7.26;38.88;100640.08;1769752;80;21197;-65
2021/03/06 05:53:17;;;;;;;;;;;;;;;7.86;37.61;100649.12;1765498;80;20691;-69
2021/03/06 05:55:48;;;;;;;;;;;;;;;8.24;34.55;100645.62;1736087;80;20182;-66
2021/03/06 05:58:16;;;;;;;;;;;;;;;8.56;35.06;100645.20;1770196;80;20120;-70
2021/03/06 06:00:44;;;;;;;;;;;;;;;9.37;34.31;100653.80;1768268;80;20615;-67
2021/03/06 06:03:12;;;;;;;;;;;;;;;10.45;32.88;100664.84;1656920;86;21304;-69
2021/03/06 06:05:40;;;;;;;;;;;;;;;11.55;32.31;100672.48;1658331;85;20280;-68
2021/03/06 06:08:17;;;;;;;;;;;;;;;12.79;30.69;100683.38;1815446;77;20271;-69
2021/03/06 06:10:45;;;;;;;;;;;;;;;13.72;26.89;100668.87;1815973;79;20486;-66
2021/03/06 06:13:14;;;;;;;;;;;;;;;13.69;26.34;100669.34;1826160;77;21179;-67
2021/03/06 06:15:41;;;;;;;;;;;;;;;13.35;25.44;100676.55;1834663;77;20162;-68
2021/03/06 06:18:09;;;;;;;;;;;;;;;13.28;26.38;100686.06;1835597;77;20209;-68
2021/03/06 06:20:38;;;;;;;;;;;;;;;13.85;25.35;100676.73;1837710;77;20189;-71
2021/03/06 06:23:11;;;;;;;;;;;;;;;14.12;24.37;100685.72;1828357;77;20174;-71
2021/03/06 06:25:41;;;;;;;;;;;;;;;13.76;25.13;100680.30;1828894;77;21209;-67
2021/03/06 06:28:10;;;;;;;;;;;;;;;13.78;25.49;100692.19;1799128;79;20168;-68
2021/03/06 06:30:38;;;;;;;;;;;;;;;13.70;25.33;100697.39;1805469;79;20827;-71
2021/03/06 06:33:07;;;;;;;;;;;;;;;12.92;25.06;100697.16;1804650;79;20180;-70
2021/03/06 06:35:41;;;;;;;;;;;;;;;12.68;26.43;100703.47;1802966;79;20143;-70
2021/03/06 06:38:09;;;;;;;;;;;;;;;13.66;26.50;100709.17;1802404;79;22180;-69
2021/03/06 06:40:38;;;;;;;;;;;;;;;14.73;23.70;100705.19;1709394;83;20261;-70
2021/03/06 06:43:26;;;;;;;;;;;;;;;15.08;23.73;100709.69;1709403;83;20142;-69
2021/03/06 06:45:54;;;;;;;;;;;;;;;15.39;22.41;100703.52;1694779;83;20240;-69
2021/03/06 06:48:23;;;;;;;;;;;;;;;14.81;22.25;100698.59;1700206;83;20256;-71
2021/03/06 06:51:07;;;;;;;;;;;;;;;14.25;23.41;100708.44;1827046;77;20229;-70
2021/03/06 06:53:35;;;;;;;;;;;;;;;13.88;23.40;100697.83;1780153;79;20129;-66
2021/03/06 06:56:05;;;;;;;;;;;;;;;13.45;24.14;100711.83;1725048;83;21922;-65
2021/03/06 06:58:35;;;;;;;;;;;;;;;13.63;23.56;100704.75;1721135;83;20524;-64
2021/03/06 07:01:23;;;;;;;;;;;;;;;13.83;23.30;100707.15;1725263;83;20245;-66
2021/03/06 07:03:55;;;;;;;;;;;;;;;13.96;23.97;100718.25;1725293;82;20170;-66
2021/03/06 07:06:22;;;;;;;;;;;;;;;14.19;23.17;100713.39;1724501;83;20167;-64
2021/03/06 07:08:51;;;;;;;;;;;;;;;14.14;22.36;100713.28;1725338;83;21225;-64
2021/03/06 07:11:25;;;;;;;;;;;;;;;13.89;23.63;100721.58;1725240;83;20143;-65
2021/03/06 07:13:53;;;;;;;;;;;;;;;13.92;23.03;100710.33;1725323;83;20227;-64
2021/03/06 07:16:55;;;;;;;;;;;;;;;13.76;23.24;100717.20;1830032;77;20700;-65
2021/03/06 07:19:26;;;;;;;;;;;;;;;12.98;23.85;100729.08;1804449;79;20109;-64
2021/03/06 07:21:54;;;;;;;;;;;;;;;12.03;24.90;100724.87;1804829;79;21366;-61
2021/03/06 07:24:22;;;;;;;;;;;;;;;11.17;25.73;100727.83;1795378;79;20189;-63
2021/03/06 07:26:52;;;;;;;;;;;;;;;10.38;26.47;100719.47;1770546;79;20504;-62
2021/03/06 07:29:21;;;;;;;;;;;;;;;9.50;27.12;100739.17;1807826;77;20109;-62
2021/03/06 07:31:53;;;;;;;;;;;;;;;8.76;27.37;100731.66;1805988;77;20107;-64
2021/03/06 07:34:26;;;;;;;;;;;;;;;7.92;28.26;100752.98;1802087;77;22108;-64
2021/03/06 07:37:04;;;;;;;;;;;;;;;7.20;29.58;100748.84;1808138;77;20196;-64
2021/03/06 07:39:47;;;;;;;;;;;;;;;6.68;31.31;100741.27;1804889;77;20163;-62
2021/03/06 07:42:49;;;;;;;;;;;;;;;6.35;31.52;100744.80;1805129;77;20211;-66
2021/03/06 07:45:22;;;;;;;;;;;;;;;6.04;31.92;100744.40;1804110;77;20205;-63
2021/03/06 07:47:52;;;;;;;;;;;;;;;5.75;33.04;100751.22;1806437;77;22120;-62
2021/03/06 07:50:28;;;;;;;;;;;;;;;5.60;33.05;100749.83;1646873;85;20257;-64
2021/03/06 07:52:56;;;;;;;;;;;;;;;5.53;33.78;100756.34;1647023;85;20584;-64
2021/03/06 07:55:28;;;;;;;;;;;;;;;5.58;33.66;100746.02;1641633;85;20269;-63
2021/03/06 07:58:09;;;;;;;;;;;;;;;5.63;33.43;100756.13;1818348;77;20319;-64
2021/03/06 08:00:46;;;;;;;;;;;;;;;5.53;34.52;100764.31;1811071;79;20200;-63
2021/03/06 08:03:26;;;;;;;;;;;;;;;5.56;35.00;100759.16;1804473;79;21208;-64
2021/03/06 08:05:55;;;;;;;;;;;;;;;5.60;34.09;100761.28;1803330;79;20239;-63
2021/03/06 08:08:36;;;;;;;;;;;;;;;5.57;33.01;100760.82;1804128;79;20503;-64
2021/03/06 08:11:15;;;;;;;;;;;;;;;5.34;33.37;100754.94;1746995;82;20485;-65
2021/03/06 08:13:47;;;;;;;;;;;;;;;5.08;33.54;100766.70;1735087;82;20223;-64
2021/03/06 08:16:31;;;;;;;;;;;;;;;4.97;34.91;100767.06;1766411;80;21170;-64
2021/03/06 08:19:03;;;;;;;;;;;;;;;4.96;34.13;100783.19;1746832;82;20145;-64
2021/03/06 08:21:50;;;;;;;;;;;;;;;4.78;34.46;100777.58;1766578;80;20139;-62
2021/03/06 08:24:22;;;;;;;;;;;;;;;4.46;34.16;100775.34;1768482;80;20210;-62
2021/03/06 08:27:05;;;;;;;;;;;;;;;4.26;36.53;100771.38;1758630;80;20215;-61
2021/03/06 08:29:40;;;;;;;;;;;;;;;4.37;36.18;100785.62;1730307;82;21456;-61
2021/03/06 08:32:16;;;;;;;;;;;;;;;4.46;34.84;100782.45;1734778;82;20221;-62
2021/03/06 08:34:54;;;;;;;;;;;;;;;4.40;35.99;100791.91;1732616;82;20304;-61
2021/03/06 08:37:25;;;;;;;;;;;;;;;4.41;35.60;100788.78;1734669;82;20299;-62
2021/03/06 08:40:08;;;;;;;;;;;;;;;4.44;35.95;100791.92;1735922;82;20205;-61
2021/03/06 08:42:48;;;;;;;;;;;;;;;4.55;34.81;100792.09;1734703;82;21239;-63
2021/03/06 08:45:26;;;;;;;;;;;;;;;4.46;34.89;100797.91;1734227;82;20220;-61
2021/03/06 08:48:03;;;;;;;;;;;;;;;4.31;35.23;100782.31;1737013;82;20212;-64
2021/03/06 08:50:32;;;;;;;;;;;;;;;4.38;36.65;100805.36;1732366;82;20229;-65
2021/03/06 08:53:07;;;;;;;;;;;;;;;4.59;36.47;100815.14;1733629;81;20138;-66
2021/03/06 08:55:40;;;;;;;;;;;;;;;4.83;35.98;100803.63;1733058;82;21262;-65
2021/03/06 08:58:10;;;;;;;;;;;;;;;5.05;34.73;100805.59;1734321;82;20140;-66
2021/03/06 09:00:40;;;;;;;;;;;;;;;4.97;34.83;100822.05;1733242;82;20278;-65
2021/03/06 09:03:11;;;;;;;;;;;;;;;4.95;35.68;100816.91;1732547;82;20174;-64
2021/03/06 09:05:39;;;;;;;;;;;;;;;4.99;34.08;100803.62;1733988;82;20216;-61
2021/03/06 09:08:07;;;;;;;;;;;;;;;4.82;34.12;100806.80;1734113;82;21210;-65
2021/03/06 09:10:42;;;;;;;;;;;;;;;4.69;34.21;100822.44;1731526;82;20228;-63
2021/03/06 09:13:15;;;;;;;;;;;;;;;4.64;33.98;100823.42;1733357;82;20109;-64
2021/03/06 09:15:49;;;;;;;;;;;;;;;4.51;35.09;100826.10;1733776;82;20289;-63
2021/03/06 09:18:21;;;;;;;;;;;;;;;4.44;35.00;100827.77;1733155;82;20261;-64
2021/03/06 09:21:02;;;;;;;;;;;;;;;4.44;36.21;100838.38;1827655;77;20277;-66
2021/03/06 09:23:39;;;;;;;;;;;;;;;4.54;36.14;100839.05;1807627;79;20131;-66
2021/03/06 09:26:14;;;;;;;;;;;;;;;4.73;34.83;100837.05;1799602;79;21386;-63
2021/03/06 09:28:43;;;;;;;;;;;;;;;4.75;34.29;100833.71;1762360;80;20142;-63
2021/03/06 09:31:18;;;;;;;;;;;;;;;4.63;34.07;100836.39;1771282;80;20589;-63
2021/03/06 09:33:46;;;;;;;;;;;;;;;4.47;34.69;100854.48;1766445;80;20140;-63
2021/03/06 09:36:16;;;;;;;;;;;;;;;4.41;36.32;100855.16;1765675;80;20136;-62
2021/03/06 09:38:51;;;;;;;;;;;;;;;4.56;35.17;100850.34;1766386;80;21393;-65
2021/03/06 09:41:22;;;;;;;;;;;;;;;4.49;33.99;100857.80;1767120;80;20116;-63
2021/03/06 09:43:53;;;;;;;;;;;;;;;4.09;34.65;100853.61;1763479;80;20174;-68
2021/03/06 09:46:27;;;;;;;;;;;;;;;3.89;36.22;100845.61;1766483;80;20231;-64
2021/03/06 09:49:06;;;;;;;;;;;;;;;3.82;34.86;100860.04;1733898;82;20515;-63
2021/03/06 09:51:41;;;;;;;;;;;;;;;3.64;35.46;100867.61;1701618;83;21165;-61
2021/03/06 09:54:10;;;;;;;;;;;;;;;3.72;35.38;100868.63;1714752;83;20536;-62
2021/03/06 09:56:54;;;;;;;;;;;;;;;3.74;34.73;100870.14;1713084;83;20216;-61
2021/03/06 09:59:23;;;;;;;;;;;;;;;3.59;34.62;100867.75;1708525;82;20326;-63
2021/03/06 10:01:50;;;;;;;;;;;;;;;3.46;36.21;100860.23;1714455;83;20244;-63
2021/03/06 10:04:25;;;;;;;;;;;;;;;3.51;36.42;100876.00;1714528;83;21223;-62
2021/03/06 10:06:54;;;;;;;;;;;;;;;3.51;35.21;100873.86;1712723;82;20533;-64
2021/03/06 10:09:22;;;;;;;;;;;;;;;3.46;35.93;100879.64;1716156;83;20167;-65
2021/03/06 10:11:53;;;;;;;;;;;;;;;3.60;36.41;100879.52;1710525;82;20526;-64
2021/03/06 10:14:24;;;;;;;;;;;;;;;3.82;35.70;100878.10;1713355;83;20257;-62
2021/03/06 10:16:53;;;;;;;;;;;;;;;3.96;34.90;100880.64;1715261;83;21211;-62
2021/03/06 10:19:23;;;;;;;;;;;;;;;4.06;35.47;100872.52;1711684;83;20239;-65
2021/03/06 10:21:59;;;;;;;;;;;;;;;4.10;33.83;100865.90;1702401;83;20124;-62
2021/03/06 10:24:27;;;;;;;;;;;;;;;4.00;33.12;100874.50;1704231;83;20176;-64
2021/03/06 10:27:00;;;;;;;;;;;;;;;3.89;34.60;100875.64;1703124;83;20235;-64
2021/03/06 10:29:28;;;;;;;;;;;;;;;3.89;33.54;100861.05;1707087;83;21053;-63
2021/03/06 10:32:00;;;;;;;;;;;;;;;3.75;33.05;100874.43;1703646;83;20325;-63
2021/03/06 10:34:31;;;;;;;;;;;;;;;3.68;33.46;100872.08;1697507;83;20662;-65
2021/03/06 10:37:10;;;;;;;;;;;;;;;3.65;33.22;100868.42;1707507;83;20267;-63
2021/03/06 10:39:59;;;;;;;;;;;;;;;3.46;34.49;100878.78;1709027;83;20228;-62
2021/03/06 10:42:47;;;;;;;;;;;;;;;3.51;35.26;100868.55;1706519;83;21206;-62
2021/03/06 10:45:24;;;;;;;;;;;;;;;3.59;34.88;100879.67;1699840;83;20244;-63
2021/03/06 10:47:54;;;;;;;;;;;;;;;3.66;34.77;100882.85;1702973;83;20277;-63
2021/03/06 10:50:27;;;;;;;;;;;;;;;3.68;34.96;100883.54;1703961;83;20215;-62
2021/03/06 10:53:18;;;;;;;;;;;;;;;3.78;34.57;100882.06;1702656;83;20486;-65
2021/03/06 10:55:47;;;;;;;;;;;;;;;3.95;35.01;100863.56;1716161;82;21217;-63
2021/03/06 10:58:16;;;;;;;;;;;;;;;4.09;34.95;100871.37;1719396;82;20145;-65
2021/03/06 11:00:45;;;;;;;;;;;;;;;4.15;33.45;100862.27;1720566;81;20166;-63
2021/03/06 11:03:13;;;;;;;;;;;;;;;4.16;32.35;100868.40;1720919;81;20362;-63
2021/03/06 11:05:42;;;;;;;;;;;;;;;4.12;32.96;100866.58;1611609;88;20314;-64
2021/03/06 11:08:18;;;;;;;;;;;;;;;4.17;31.43;100860.78;1610461;88;21260;-63
2021/03/06 11:10:49;;;;;;;;;;;;;;;4.19;30.98;100860.92;1611233;88;20338;-63
2021/03/06 11:13:27;;;;;;;;;;;;;;;4.27;31.78;100869.42;1829314;77;20212;-65
2021/03/06 11:15:56;;;;;;;;;;;;;;;4.30;32.21;100869.09;1770935;79;20179;-63
2021/03/06 11:18:25;;;;;;;;;;;;;;;4.40;32.88;100867.58;1800626;79;21198;-63
2021/03/06 11:20:54;;;;;;;;;;;;;;;4.53;32.45;100861.30;1801326;78;20208;-63
2021/03/06 11:23:22;;;;;;;;;;;;;;;4.58;30.10;100859.95;1800801;78;20216;-63
2021/03/06 11:25:50;;;;;;;;;;;;;;;4.48;29.58;100860.14;1791603;78;20226;-63
2021/03/06 11:31:38;;;;;;;;;;;;;;;4.24;31.32;100861.78;1775306;79;20133;-65
2021/03/06 11:37:38;;;;;;;;;;;;;;;4.44;30.59;100858.80;1771591;80;20233;-64
2021/03/06 11:43:36;;;;;;;;;;;;;;;4.45;31.33;100858.64;1774117;80;20222;-63
2021/03/06 11:49:35;;;;;;;;;;;;;;;4.24;31.49;100851.64;1770689;80;20135;-64
2021/03/06 11:55:35;;;;;;;;;;;;;;;4.43;31.31;100861.12;1770696;80;20244;-63
2021/03/06 12:01:33;;;;;;;;;;;;;;;4.36;31.34;100856.48;1772185;80;20155;-63
2021/03/06 12:07:32;;;;;;;;;;;;;;;4.43;30.26;100848.69;1770256;80;20169;-63
2021/03/06 12:13:31;;;;;;;;;;;;;;;4.34;29.86;100865.11;1766927;80;20159;-63
2021/03/06 12:19:31;;;;;;;;;;;;;;;4.24;31.11;100851.64;1770078;80;20523;-64
2021/03/06 12:25:30;;;;;;;;;;;;;;;4.28;31.80;100858.30;1766841;80;20508;-63
2021/03/06 12:27:57;;;;;;;;;;;;;;;4.47;31.80;100860.62;1768128;80;20143;-62
2021/03/06 12:30:25;;;;;;;;;;;;;;;4.55;31.65;100862.46;1766457;80;21450;-63
2021/03/06 12:32:55;;;;;;;;;;;;;;;4.59;30.56;100861.63;1766739;80;20598;-63
2021/03/06 12:35:23;;;;;;;;;;;;;;;4.64;30.65;100864.59;1767394;80;20149;-64
2021/03/06 12:37:52;;;;;;;;;;;;;;;4.67;31.02;100859.79;1765485;80;20143;-63
2021/03/06 12:40:20;;;;;;;;;;;;;;;4.71;30.82;100859.80;1764939;80;20137;-62
2021/03/06 12:42:48;;;;;;;;;;;;;;;4.73;30.09;100863.09;1762796;80;21198;-61
2021/03/06 12:45:16;;;;;;;;;;;;;;;4.77;30.12;100863.61;1771174;80;20137;-61
2021/03/06 12:47:44;;;;;;;;;;;;;;;4.74;29.69;100865.24;1771113;80;20226;-61
2021/03/06 12:50:15;;;;;;;;;;;;;;;4.71;29.72;100861.59;1768152;80;20185;-63
2021/03/06 12:52:42;;;;;;;;;;;;;;;4.69;29.23;100860.44;1767579;80;20232;-62
2021/03/06 12:55:12;;;;;;;;;;;;;;;4.71;29.87;100865.10;1762029;80;22284;-62
2021/03/06 12:57:39;;;;;;;;;;;;;;;4.80;30.35;100859.28;1768082;80;20154;-65
2021/03/06 13:00:09;;;;;;;;;;;;;;;4.93;30.25;100861.41;1768160;80;20189;-62
2021/03/06 13:02:38;;;;;;;;;;;;;;;5.01;29.29;100869.38;1762811;80;21133;-61
2021/03/06 13:05:08;;;;;;;;;;;;;;;5.02;28.25;100860.41;1720171;80;20300;-62
2021/03/06 13:07:36;;;;;;;;;;;;;;;4.99;28.41;100870.05;1769489;80;22286;-61
2021/03/06 13:10:06;;;;;;;;;;;;;;;5.02;28.14;100867.53;1767994;80;20539;-61
2021/03/06 13:12:34;;;;;;;;;;;;;;;5.02;28.30;100870.19;1766995;80;20507;-62
2021/03/06 13:15:02;;;;;;;;;;;;;;;4.94;28.56;100868.38;1728415;81;20130;-61
2021/03/06 13:17:30;;;;;;;;;;;;;;;4.90;28.79;100862.59;1757759;81;20221;-60
2021/03/06 13:19:59;;;;;;;;;;;;;;;4.86;29.71;100870.56;1756716;81;21198;-61
2021/03/06 13:22:27;;;;;;;;;;;;;;;4.90;29.84;100863.92;1756117;81;20239;-61
2021/03/06 13:24:55;;;;;;;;;;;;;;;4.98;28.45;100864.40;1755182;81;20247;-60
2021/03/06 13:27:22;;;;;;;;;;;;;;;4.92;27.64;100857.11;1756449;79;20146;-61
2021/03/06 13:29:50;;;;;;;;;;;;;;;4.80;27.77;100865.93;1756391;81;20501;-61
2021/03/06 13:32:18;;;;;;;;;;;;;;;4.79;28.61;100868.24;1757024;81;21217;-62
2021/03/06 13:34:47;;;;;;;;;;;;;;;4.89;28.03;100859.59;1755383;81;20197;-63
2021/03/06 13:37:16;;;;;;;;;;;;;;;4.89;27.54;100864.91;1756809;81;20527;-63
2021/03/06 13:39:44;;;;;;;;;;;;;;;4.84;28.14;100857.11;1756608;80;20142;-63
2021/03/06 13:42:11;;;;;;;;;;;;;;;4.80;28.69;100863.27;1756471;81;20239;-62
2021/03/06 13:44:40;;;;;;;;;;;;;;;4.78;28.53;100859.94;1728709;81;22133;-60
2021/03/06 13:47:08;;;;;;;;;;;;;;;4.80;28.64;100863.75;1757457;81;20210;-61
2021/03/06 13:49:36;;;;;;;;;;;;;;;4.83;28.71;100861.61;1727384;81;20217;-63
2021/03/06 13:52:09;;;;;;;;;;;;;;;4.80;27.87;100857.96;1760639;81;20338;-62
2021/03/06 13:54:40;;;;;;;;;;;;;;;4.77;27.81;100862.28;1767033;81;20144;-63
2021/03/06 13:57:09;;;;;;;;;;;;;;;4.68;27.61;100857.48;1766336;81;22158;-63